sensor_id;sensor_type;location;lat;lon;timestamp;temperature;humidity
57857;DHT22;43683;48.650;9.290;2024-02-15T00:01:30;9.10;92.10
57857;DHT22;43683;48.650;9.290;2024-02-15T00:03:56;9.10;92.20
57857;DHT22;43683;48.650;9.290;2024-02-15T00:06:22;9.00;92.20
57857;DHT22;43683;48.650;9.290;2024-02-15T00:08:48;9.00;92.30
57857;DHT22;43683;48.650;9.290;2024-02-15T00:11:17;8.90;92.30
57857;DHT22;43683;48.650;9.290;2024-02-15T00:13:43;8.80;92.50
57857;DHT22;43683;48.650;9.290;2024-02-15T00:16:12;8.80;92.60
57857;DHT22;43683;48.650;9.290;2024-02-15T00:18:38;8.70;92.80
57857;DHT22;43683;48.650;9.290;2024-02-15T00:21:05;8.70;92.90
57857;DHT22;43683;48.650;9.290;2024-02-15T00:23:31;8.70;92.80
57857;DHT22;43683;48.650;9.290;2024-02-15T00:25:58;8.70;92.80
57857;DHT22;43683;48.650;9.290;2024-02-15T00:28:23;8.80;92.80
57857;DHT22;43683;48.650;9.290;2024-02-15T00:30:49;8.80;92.70
57857;DHT22;43683;48.650;9.290;2024-02-15T00:33:15;8.90;92.70
57857;DHT22;43683;48.650;9.290;2024-02-15T00:35:42;8.90;92.60
57857;DHT22;43683;48.650;9.290;2024-02-15T00:38:07;9.00;92.60
57857;DHT22;43683;48.650;9.290;2024-02-15T00:40:33;9.00;92.50
57857;DHT22;43683;48.650;9.290;2024-02-15T00:42:58;9.10;92.50
57857;DHT22;43683;48.650;9.290;2024-02-15T00:45:24;9.10;92.50
57857;DHT22;43683;48.650;9.290;2024-02-15T00:47:50;9.10;92.50
57857;DHT22;43683;48.650;9.290;2024-02-15T00:50:15;9.10;92.50
57857;DHT22;43683;48.650;9.290;2024-02-15T00:52:41;9.10;92.50
57857;DHT22;43683;48.650;9.290;2024-02-15T00:55:07;9.10;92.50
57857;DHT22;43683;48.650;9.290;2024-02-15T00:57:32;9.20;92.50
57857;DHT22;43683;48.650;9.290;2024-02-15T00:59:58;9.10;92.50
57857;DHT22;43683;48.650;9.290;2024-02-15T01:02:24;9.10;92.60
57857;DHT22;43683;48.650;9.290;2024-02-15T01:04:51;8.90;92.70
57857;DHT22;43683;48.650;9.290;2024-02-15T01:07:16;8.90;93.00
57857;DHT22;43683;48.650;9.290;2024-02-15T01:09:42;8.80;93.00
57857;DHT22;43683;48.650;9.290;2024-02-15T01:12:08;8.90;93.00
57857;DHT22;43683;48.650;9.290;2024-02-15T01:14:33;8.90;92.90
57857;DHT22;43683;48.650;9.290;2024-02-15T01:16:59;9.00;92.90
57857;DHT22;43683;48.650;9.290;2024-02-15T01:19:25;8.90;92.90
57857;DHT22;43683;48.650;9.290;2024-02-15T01:21:50;8.80;93.00
57857;DHT22;43683;48.650;9.290;2024-02-15T01:24:16;8.70;93.20
57857;DHT22;43683;48.650;9.290;2024-02-15T01:26:42;8.60;93.40
57857;DHT22;43683;48.650;9.290;2024-02-15T01:29:08;8.50;93.60
57857;DHT22;43683;48.650;9.290;2024-02-15T01:31:37;8.30;93.80
57857;DHT22;43683;48.650;9.290;2024-02-15T01:34:04;8.10;93.90
57857;DHT22;43683;48.650;9.290;2024-02-15T01:36:29;8.00;94.40
57857;DHT22;43683;48.650;9.290;2024-02-15T01:38:55;8.00;94.20
57857;DHT22;43683;48.650;9.290;2024-02-15T01:41:20;8.00;94.20
57857;DHT22;43683;48.650;9.290;2024-02-15T01:43:46;8.00;94.10
57857;DHT22;43683;48.650;9.290;2024-02-15T01:46:14;8.00;94.10
57857;DHT22;43683;48.650;9.290;2024-02-15T01:48:40;8.20;93.90
57857;DHT22;43683;48.650;9.290;2024-02-15T01:51:07;8.40;93.70
57857;DHT22;43683;48.650;9.290;2024-02-15T01:53:35;8.50;93.50
57857;DHT22;43683;48.650;9.290;2024-02-15T01:56:01;8.50;93.40
57857;DHT22;43683;48.650;9.290;2024-02-15T01:58:27;8.50;93.50
57857;DHT22;43683;48.650;9.290;2024-02-15T02:00:54;8.40;93.50
57857;DHT22;43683;48.650;9.290;2024-02-15T02:03:21;8.30;93.70
57857;DHT22;43683;48.650;9.290;2024-02-15T02:05:47;8.00;94.00
57857;DHT22;43683;48.650;9.290;2024-02-15T02:08:13;7.80;94.30
57857;DHT22;43683;48.650;9.290;2024-02-15T02:10:41;7.50;94.60
57857;DHT22;43683;48.650;9.290;2024-02-15T02:13:08;7.20;94.90
57857;DHT22;43683;48.650;9.290;2024-02-15T02:15:34;7.10;95.20
57857;DHT22;43683;48.650;9.290;2024-02-15T02:18:02;6.80;95.50
57857;DHT22;43683;48.650;9.290;2024-02-15T02:20:28;6.60;95.70
57857;DHT22;43683;48.650;9.290;2024-02-15T02:22:55;6.40;95.90
57857;DHT22;43683;48.650;9.290;2024-02-15T02:25:24;6.20;96.00
57857;DHT22;43683;48.650;9.290;2024-02-15T02:27:53;6.10;96.10
57857;DHT22;43683;48.650;9.290;2024-02-15T02:30:19;6.00;96.10
57857;DHT22;43683;48.650;9.290;2024-02-15T02:32:47;5.80;96.20
57857;DHT22;43683;48.650;9.290;2024-02-15T02:35:13;5.60;96.20
57857;DHT22;43683;48.650;9.290;2024-02-15T02:37:42;5.50;96.30
57857;DHT22;43683;48.650;9.290;2024-02-15T02:40:08;5.40;96.40
57857;DHT22;43683;48.650;9.290;2024-02-15T02:42:47;5.30;96.40
57857;DHT22;43683;48.650;9.290;2024-02-15T02:45:13;5.20;96.50
57857;DHT22;43683;48.650;9.290;2024-02-15T02:47:39;5.10;96.50
57857;DHT22;43683;48.650;9.290;2024-02-15T02:50:05;5.10;96.50
57857;DHT22;43683;48.650;9.290;2024-02-15T02:52:30;5.00;96.50
57857;DHT22;43683;48.650;9.290;2024-02-15T02:54:56;5.00;96.50
57857;DHT22;43683;48.650;9.290;2024-02-15T02:57:23;5.00;96.50
57857;DHT22;43683;48.650;9.290;2024-02-15T02:59:48;5.00;96.50
57857;DHT22;43683;48.650;9.290;2024-02-15T03:02:14;4.90;96.40
57857;DHT22;43683;48.650;9.290;2024-02-15T03:04:40;5.00;96.40
57857;DHT22;43683;48.650;9.290;2024-02-15T03:07:06;5.00;96.30
57857;DHT22;43683;48.650;9.290;2024-02-15T03:09:31;4.90;96.40
57857;DHT22;43683;48.650;9.290;2024-02-15T03:11:57;4.90;96.50
57857;DHT22;43683;48.650;9.290;2024-02-15T03:14:22;4.90;96.50
57857;DHT22;43683;48.650;9.290;2024-02-15T03:16:48;4.90;96.50
57857;DHT22;43683;48.650;9.290;2024-02-15T03:19:13;4.80;96.60
57857;DHT22;43683;48.650;9.290;2024-02-15T03:21:39;4.70;96.60
57857;DHT22;43683;48.650;9.290;2024-02-15T03:24:07;4.70;96.70
57857;DHT22;43683;48.650;9.290;2024-02-15T03:26:33;4.60;96.70
57857;DHT22;43683;48.650;9.290;2024-02-15T03:29:05;4.60;96.80
57857;DHT22;43683;48.650;9.290;2024-02-15T03:31:33;4.50;96.90
57857;DHT22;43683;48.650;9.290;2024-02-15T03:34:03;4.50;97.00
57857;DHT22;43683;48.650;9.290;2024-02-15T03:36:29;4.40;97.00
57857;DHT22;43683;48.650;9.290;2024-02-15T03:38:55;4.50;97.00
57857;DHT22;43683;48.650;9.290;2024-02-15T03:41:21;4.40;96.90
57857;DHT22;43683;48.650;9.290;2024-02-15T03:43:47;4.40;97.00
57857;DHT22;43683;48.650;9.290;2024-02-15T03:46:13;4.30;97.10
57857;DHT22;43683;48.650;9.290;2024-02-15T03:48:42;4.30;97.50
57857;DHT22;43683;48.650;9.290;2024-02-15T03:51:07;4.20;97.20
57857;DHT22;43683;48.650;9.290;2024-02-15T03:53:34;4.20;97.30
57857;DHT22;43683;48.650;9.290;2024-02-15T03:56:05;4.20;97.30
57857;DHT22;43683;48.650;9.290;2024-02-15T03:58:30;4.20;97.30
57857;DHT22;43683;48.650;9.290;2024-02-15T04:00:58;4.10;97.30
57857;DHT22;43683;48.650;9.290;2024-02-15T04:03:24;4.10;97.30
57857;DHT22;43683;48.650;9.290;2024-02-15T04:05:49;4.10;97.40
57857;DHT22;43683;48.650;9.290;2024-02-15T04:08:15;4.10;97.40
57857;DHT22;43683;48.650;9.290;2024-02-15T04:10:42;4.10;97.50
57857;DHT22;43683;48.650;9.290;2024-02-15T04:13:08;4.10;97.50
57857;DHT22;43683;48.650;9.290;2024-02-15T04:15:33;4.20;97.40
57857;DHT22;43683;48.650;9.290;2024-02-15T04:17:59;4.50;97.10
57857;DHT22;43683;48.650;9.290;2024-02-15T04:20:25;4.60;96.80
57857;DHT22;43683;48.650;9.290;2024-02-15T04:22:52;4.90;96.60
57857;DHT22;43683;48.650;9.290;2024-02-15T04:25:17;5.10;96.30
57857;DHT22;43683;48.650;9.290;2024-02-15T04:27:46;5.30;96.20
57857;DHT22;43683;48.650;9.290;2024-02-15T04:30:14;5.40;95.90
57857;DHT22;43683;48.650;9.290;2024-02-15T04:32:41;5.60;95.70
57857;DHT22;43683;48.650;9.290;2024-02-15T04:35:06;5.70;95.60
57857;DHT22;43683;48.650;9.290;2024-02-15T04:37:32;6.00;95.60
57857;DHT22;43683;48.650;9.290;2024-02-15T04:39:59;6.20;95.50
57857;DHT22;43683;48.650;9.290;2024-02-15T04:42:35;6.30;95.30
57857;DHT22;43683;48.650;9.290;2024-02-15T04:45:04;6.50;95.30
57857;DHT22;43683;48.650;9.290;2024-02-15T04:47:34;6.50;95.30
57857;DHT22;43683;48.650;9.290;2024-02-15T04:50:00;6.60;95.50
57857;DHT22;43683;48.650;9.290;2024-02-15T04:52:25;6.60;95.60
57857;DHT22;43683;48.650;9.290;2024-02-15T04:54:51;6.70;95.80
57857;DHT22;43683;48.650;9.290;2024-02-15T04:57:19;6.70;95.90
57857;DHT22;43683;48.650;9.290;2024-02-15T04:59:45;6.70;96.10
57857;DHT22;43683;48.650;9.290;2024-02-15T05:02:13;6.70;96.20
57857;DHT22;43683;48.650;9.290;2024-02-15T05:04:38;6.70;96.30
57857;DHT22;43683;48.650;9.290;2024-02-15T05:07:08;6.70;96.40
57857;DHT22;43683;48.650;9.290;2024-02-15T05:09:33;6.70;96.50
57857;DHT22;43683;48.650;9.290;2024-02-15T05:12:00;6.60;96.70
57857;DHT22;43683;48.650;9.290;2024-02-15T05:14:30;6.40;96.90
57857;DHT22;43683;48.650;9.290;2024-02-15T05:16:56;6.30;97.00
57857;DHT22;43683;48.650;9.290;2024-02-15T05:19:21;6.30;97.10
57857;DHT22;43683;48.650;9.290;2024-02-15T05:21:47;6.30;97.10
57857;DHT22;43683;48.650;9.290;2024-02-15T05:24:16;6.30;97.00
57857;DHT22;43683;48.650;9.290;2024-02-15T05:26:44;6.30;97.00
57857;DHT22;43683;48.650;9.290;2024-02-15T05:29:14;6.30;97.00
57857;DHT22;43683;48.650;9.290;2024-02-15T05:31:40;6.30;97.00
57857;DHT22;43683;48.650;9.290;2024-02-15T05:34:06;6.30;97.00
57857;DHT22;43683;48.650;9.290;2024-02-15T05:36:37;6.20;97.00
57857;DHT22;43683;48.650;9.290;2024-02-15T05:39:03;6.10;97.00
57857;DHT22;43683;48.650;9.290;2024-02-15T05:41:30;6.00;97.00
57857;DHT22;43683;48.650;9.290;2024-02-15T05:43:57;5.90;97.10
57857;DHT22;43683;48.650;9.290;2024-02-15T05:46:23;5.80;97.10
57857;DHT22;43683;48.650;9.290;2024-02-15T05:48:50;5.70;97.30
57857;DHT22;43683;48.650;9.290;2024-02-15T05:51:19;5.60;97.40
57857;DHT22;43683;48.650;9.290;2024-02-15T05:53:44;5.50;97.40
57857;DHT22;43683;48.650;9.290;2024-02-15T05:56:10;5.40;97.50
57857;DHT22;43683;48.650;9.290;2024-02-15T05:58:37;5.30;97.50
57857;DHT22;43683;48.650;9.290;2024-02-15T06:01:03;5.20;97.60
57857;DHT22;43683;48.650;9.290;2024-02-15T06:03:32;5.00;97.70
57857;DHT22;43683;48.650;9.290;2024-02-15T06:05:59;4.90;97.90
57857;DHT22;43683;48.650;9.290;2024-02-15T06:08:28;4.90;97.80
57857;DHT22;43683;48.650;9.290;2024-02-15T06:10:55;4.90;97.80
57857;DHT22;43683;48.650;9.290;2024-02-15T06:13:22;4.80;97.80
57857;DHT22;43683;48.650;9.290;2024-02-15T06:15:48;4.80;97.80
57857;DHT22;43683;48.650;9.290;2024-02-15T06:18:18;4.70;97.70
57857;DHT22;43683;48.650;9.290;2024-02-15T06:20:47;4.80;97.70
57857;DHT22;43683;48.650;9.290;2024-02-15T06:23:15;4.80;97.60
57857;DHT22;43683;48.650;9.290;2024-02-15T06:25:43;4.80;97.60
57857;DHT22;43683;48.650;9.290;2024-02-15T06:28:09;4.80;97.50
57857;DHT22;43683;48.650;9.290;2024-02-15T06:30:53;4.90;97.30
57857;DHT22;43683;48.650;9.290;2024-02-15T06:33:37;4.90;97.20
57857;DHT22;43683;48.650;9.290;2024-02-15T06:36:21;5.00;97.20
57857;DHT22;43683;48.650;9.290;2024-02-15T06:39:05;5.00;97.20
57857;DHT22;43683;48.650;9.290;2024-02-15T06:41:48;4.90;97.20
57857;DHT22;43683;48.650;9.290;2024-02-15T06:44:14;5.00;97.20
57857;DHT22;43683;48.650;9.290;2024-02-15T06:46:40;4.90;97.20
57857;DHT22;43683;48.650;9.290;2024-02-15T06:49:06;4.90;97.30
57857;DHT22;43683;48.650;9.290;2024-02-15T06:51:32;4.80;97.40
57857;DHT22;43683;48.650;9.290;2024-02-15T06:53:57;4.90;97.40
57857;DHT22;43683;48.650;9.290;2024-02-15T06:56:23;4.90;97.40
57857;DHT22;43683;48.650;9.290;2024-02-15T06:58:50;4.90;97.50
57857;DHT22;43683;48.650;9.290;2024-02-15T07:01:15;4.90;97.60
57857;DHT22;43683;48.650;9.290;2024-02-15T07:03:42;4.90;97.70
57857;DHT22;43683;48.650;9.290;2024-02-15T07:06:09;4.90;97.70
57857;DHT22;43683;48.650;9.290;2024-02-15T07:08:35;5.00;97.70
57857;DHT22;43683;48.650;9.290;2024-02-15T07:11:01;5.10;97.70
57857;DHT22;43683;48.650;9.290;2024-02-15T07:13:29;5.20;97.70
57857;DHT22;43683;48.650;9.290;2024-02-15T07:15:54;5.30;97.70
57857;DHT22;43683;48.650;9.290;2024-02-15T07:18:20;5.40;97.70
57857;DHT22;43683;48.650;9.290;2024-02-15T07:20:47;5.50;97.80
57857;DHT22;43683;48.650;9.290;2024-02-15T07:23:13;5.60;97.70
57857;DHT22;43683;48.650;9.290;2024-02-15T07:25:40;5.70;97.70
57857;DHT22;43683;48.650;9.290;2024-02-15T07:28:06;5.90;97.70
57857;DHT22;43683;48.650;9.290;2024-02-15T07:30:34;6.10;97.70
57857;DHT22;43683;48.650;9.290;2024-02-15T07:32:59;6.20;97.80
57857;DHT22;43683;48.650;9.290;2024-02-15T07:35:25;6.40;97.90
57857;DHT22;43683;48.650;9.290;2024-02-15T07:37:52;6.60;98.20
57857;DHT22;43683;48.650;9.290;2024-02-15T07:40:19;6.80;98.60
57857;DHT22;43683;48.650;9.290;2024-02-15T07:42:47;7.00;99.00
57857;DHT22;43683;48.650;9.290;2024-02-15T07:45:13;7.30;99.40
57857;DHT22;43683;48.650;9.290;2024-02-15T07:47:39;7.50;99.60
57857;DHT22;43683;48.650;9.290;2024-02-15T07:50:05;7.80;99.80
57857;DHT22;43683;48.650;9.290;2024-02-15T07:52:31;8.10;99.90
57857;DHT22;43683;48.650;9.290;2024-02-15T07:54:56;8.40;99.90
57857;DHT22;43683;48.650;9.290;2024-02-15T07:57:22;8.70;99.90
57857;DHT22;43683;48.650;9.290;2024-02-15T07:59:48;9.00;99.90
57857;DHT22;43683;48.650;9.290;2024-02-15T08:02:14;9.30;99.90
57857;DHT22;43683;48.650;9.290;2024-02-15T08:04:43;9.50;99.90
57857;DHT22;43683;48.650;9.290;2024-02-15T08:07:09;9.80;99.50
57857;DHT22;43683;48.650;9.290;2024-02-15T08:09:37;10.10;99.20
57857;DHT22;43683;48.650;9.290;2024-02-15T08:12:03;10.50;98.70
57857;DHT22;43683;48.650;9.290;2024-02-15T08:14:28;10.80;98.40
57857;DHT22;43683;48.650;9.290;2024-02-15T08:16:54;11.20;97.90
57857;DHT22;43683;48.650;9.290;2024-02-15T08:19:21;11.60;97.40
57857;DHT22;43683;48.650;9.290;2024-02-15T08:21:48;12.00;97.00
57857;DHT22;43683;48.650;9.290;2024-02-15T08:24:16;12.40;96.50
57857;DHT22;43683;48.650;9.290;2024-02-15T08:26:42;12.70;95.80
57857;DHT22;43683;48.650;9.290;2024-02-15T08:29:09;12.70;95.00
57857;DHT22;43683;48.650;9.290;2024-02-15T08:31:35;12.70;94.50
57857;DHT22;43683;48.650;9.290;2024-02-15T08:34:03;12.80;94.00
57857;DHT22;43683;48.650;9.290;2024-02-15T08:36:35;13.10;93.50
57857;DHT22;43683;48.650;9.290;2024-02-15T08:39:01;13.30;93.00
57857;DHT22;43683;48.650;9.290;2024-02-15T08:41:29;13.60;92.40
57857;DHT22;43683;48.650;9.290;2024-02-15T08:43:54;13.80;91.80
57857;DHT22;43683;48.650;9.290;2024-02-15T08:46:23;14.00;91.30
57857;DHT22;43683;48.650;9.290;2024-02-15T08:48:50;14.20;90.80
57857;DHT22;43683;48.650;9.290;2024-02-15T08:51:16;14.40;90.10
57857;DHT22;43683;48.650;9.290;2024-02-15T08:53:41;14.40;88.70
57857;DHT22;43683;48.650;9.290;2024-02-15T08:56:08;14.20;87.60
57857;DHT22;43683;48.650;9.290;2024-02-15T08:58:35;14.00;86.80
57857;DHT22;43683;48.650;9.290;2024-02-15T09:01:01;13.90;86.30
57857;DHT22;43683;48.650;9.290;2024-02-15T09:03:28;13.70;85.90
57857;DHT22;43683;48.650;9.290;2024-02-15T09:05:53;13.80;86.10
57857;DHT22;43683;48.650;9.290;2024-02-15T09:08:20;14.00;85.40
57857;DHT22;43683;48.650;9.290;2024-02-15T09:10:47;14.10;85.50
57857;DHT22;43683;48.650;9.290;2024-02-15T09:13:12;14.00;84.20
57857;DHT22;43683;48.650;9.290;2024-02-15T09:15:38;14.00;84.50
57857;DHT22;43683;48.650;9.290;2024-02-15T09:18:04;14.10;84.20
57857;DHT22;43683;48.650;9.290;2024-02-15T09:20:30;14.20;83.70
57857;DHT22;43683;48.650;9.290;2024-02-15T09:22:57;14.40;83.50
57857;DHT22;43683;48.650;9.290;2024-02-15T09:25:23;14.60;83.20
57857;DHT22;43683;48.650;9.290;2024-02-15T09:27:49;14.80;82.40
57857;DHT22;43683;48.650;9.290;2024-02-15T09:30:18;14.90;82.30
57857;DHT22;43683;48.650;9.290;2024-02-15T09:32:44;15.10;81.60
57857;DHT22;43683;48.650;9.290;2024-02-15T09:35:11;15.40;81.40
57857;DHT22;43683;48.650;9.290;2024-02-15T09:37:47;15.60;80.50
57857;DHT22;43683;48.650;9.290;2024-02-15T09:40:18;15.80;79.30
57857;DHT22;43683;48.650;9.290;2024-02-15T09:42:44;15.90;79.40
57857;DHT22;43683;48.650;9.290;2024-02-15T09:45:11;16.00;79.00
57857;DHT22;43683;48.650;9.290;2024-02-15T09:47:42;16.10;78.50
57857;DHT22;43683;48.650;9.290;2024-02-15T09:50:09;16.20;78.00
57857;DHT22;43683;48.650;9.290;2024-02-15T09:52:49;16.40;77.20
57857;DHT22;43683;48.650;9.290;2024-02-15T09:55:16;16.50;76.30
57857;DHT22;43683;48.650;9.290;2024-02-15T09:57:43;16.60;75.70
57857;DHT22;43683;48.650;9.290;2024-02-15T10:00:11;16.70;74.80
57857;DHT22;43683;48.650;9.290;2024-02-15T10:02:41;16.80;74.30
57857;DHT22;43683;48.650;9.290;2024-02-15T10:05:08;17.20;73.30
57857;DHT22;43683;48.650;9.290;2024-02-15T10:07:43;17.30;72.70
57857;DHT22;43683;48.650;9.290;2024-02-15T10:10:23;17.70;71.90
57857;DHT22;43683;48.650;9.290;2024-02-15T10:12:51;18.00;69.90
57857;DHT22;43683;48.650;9.290;2024-02-15T10:15:38;18.30;70.30
57857;DHT22;43683;48.650;9.290;2024-02-15T10:18:09;18.50;68.70
57857;DHT22;43683;48.650;9.290;2024-02-15T10:20:37;18.90;68.30
57857;DHT22;43683;48.650;9.290;2024-02-15T10:23:15;19.20;67.30
57857;DHT22;43683;48.650;9.290;2024-02-15T10:25:44;19.30;69.00
57857;DHT22;43683;48.650;9.290;2024-02-15T10:28:14;19.30;67.60
57857;DHT22;43683;48.650;9.290;2024-02-15T10:30:45;19.30;65.40
57857;DHT22;43683;48.650;9.290;2024-02-15T10:33:27;19.40;65.00
57857;DHT22;43683;48.650;9.290;2024-02-15T10:36:09;19.60;63.20
57857;DHT22;43683;48.650;9.290;2024-02-15T10:38:35;19.90;62.60
57857;DHT22;43683;48.650;9.290;2024-02-15T10:41:08;20.00;62.50
57857;DHT22;43683;48.650;9.290;2024-02-15T10:43:34;20.10;61.50
57857;DHT22;43683;48.650;9.290;2024-02-15T10:46:00;20.30;60.90
57857;DHT22;43683;48.650;9.290;2024-02-15T10:48:26;20.30;60.60
57857;DHT22;43683;48.650;9.290;2024-02-15T10:50:56;20.40;60.50
57857;DHT22;43683;48.650;9.290;2024-02-15T10:53:26;20.60;59.20
57857;DHT22;43683;48.650;9.290;2024-02-15T10:58:26;20.60;58.50
57857;DHT22;43683;48.650;9.290;2024-02-15T11:00:59;20.50;58.40
57857;DHT22;43683;48.650;9.290;2024-02-15T11:03:32;20.40;57.70
57857;DHT22;43683;48.650;9.290;2024-02-15T11:06:02;20.50;57.00
57857;DHT22;43683;48.650;9.290;2024-02-15T11:08:30;20.60;57.10
57857;DHT22;43683;48.650;9.290;2024-02-15T11:10:57;20.80;56.50
57857;DHT22;43683;48.650;9.290;2024-02-15T11:13:24;20.90;56.00
57857;DHT22;43683;48.650;9.290;2024-02-15T11:15:50;20.90;55.70
57857;DHT22;43683;48.650;9.290;2024-02-15T11:18:45;20.80;55.70
57857;DHT22;43683;48.650;9.290;2024-02-15T11:21:15;21.00;54.80
57857;DHT22;43683;48.650;9.290;2024-02-15T11:23:41;20.90;55.00
57857;DHT22;43683;48.650;9.290;2024-02-15T11:26:43;20.80;54.50
57857;DHT22;43683;48.650;9.290;2024-02-15T11:32:48;20.60;54.30
57857;DHT22;43683;48.650;9.290;2024-02-15T11:40:16;20.90;53.70
57857;DHT22;43683;48.650;9.290;2024-02-15T11:42:43;20.90;53.50
57857;DHT22;43683;48.650;9.290;2024-02-15T11:45:09;20.80;53.60
57857;DHT22;43683;48.650;9.290;2024-02-15T11:47:39;20.80;53.50
57857;DHT22;43683;48.650;9.290;2024-02-15T11:50:11;20.80;53.10
57857;DHT22;43683;48.650;9.290;2024-02-15T11:52:40;20.80;53.20
57857;DHT22;43683;48.650;9.290;2024-02-15T11:55:07;20.90;52.90
57857;DHT22;43683;48.650;9.290;2024-02-15T11:57:37;20.80;52.60
57857;DHT22;43683;48.650;9.290;2024-02-15T12:00:20;20.70;52.40
57857;DHT22;43683;48.650;9.290;2024-02-15T12:03:04;20.60;51.90
57857;DHT22;43683;48.650;9.290;2024-02-15T12:05:49;20.60;52.40
57857;DHT22;43683;48.650;9.290;2024-02-15T12:08:34;20.50;52.00
57857;DHT22;43683;48.650;9.290;2024-02-15T12:11:18;20.30;52.20
57857;DHT22;43683;48.650;9.290;2024-02-15T12:14:02;20.10;52.30
57857;DHT22;43683;48.650;9.290;2024-02-15T12:16:46;20.10;52.20
57857;DHT22;43683;48.650;9.290;2024-02-15T12:19:30;19.90;52.40
57857;DHT22;43683;48.650;9.290;2024-02-15T12:21:59;19.90;52.40
57857;DHT22;43683;48.650;9.290;2024-02-15T12:24:24;19.90;52.20
57857;DHT22;43683;48.650;9.290;2024-02-15T12:26:59;20.00;52.30
57857;DHT22;43683;48.650;9.290;2024-02-15T12:29:25;20.30;52.10
57857;DHT22;43683;48.650;9.290;2024-02-15T12:31:51;20.20;51.90
57857;DHT22;43683;48.650;9.290;2024-02-15T12:34:20;19.90;51.80
57857;DHT22;43683;48.650;9.290;2024-02-15T12:36:46;20.00;51.60
57857;DHT22;43683;48.650;9.290;2024-02-15T12:39:14;20.00;51.60
57857;DHT22;43683;48.650;9.290;2024-02-15T12:41:49;19.90;51.60
57857;DHT22;43683;48.650;9.290;2024-02-15T12:44:16;19.90;51.70
57857;DHT22;43683;48.650;9.290;2024-02-15T12:46:42;19.90;51.80
57857;DHT22;43683;48.650;9.290;2024-02-15T12:49:11;20.00;51.80
57857;DHT22;43683;48.650;9.290;2024-02-15T12:51:39;19.90;52.30
57857;DHT22;43683;48.650;9.290;2024-02-15T12:54:09;19.80;52.20
57857;DHT22;43683;48.650;9.290;2024-02-15T12:56:36;19.90;52.10
57857;DHT22;43683;48.650;9.290;2024-02-15T12:59:01;20.10;51.90
57857;DHT22;43683;48.650;9.290;2024-02-15T13:01:28;20.10;51.50
57857;DHT22;43683;48.650;9.290;2024-02-15T13:03:54;20.10;51.60
57857;DHT22;43683;48.650;9.290;2024-02-15T13:06:20;20.10;51.20
57857;DHT22;43683;48.650;9.290;2024-02-15T13:08:49;20.20;51.30
57857;DHT22;43683;48.650;9.290;2024-02-15T13:11:15;20.20;51.30
57857;DHT22;43683;48.650;9.290;2024-02-15T13:13:41;20.20;51.10
57857;DHT22;43683;48.650;9.290;2024-02-15T13:16:07;20.10;50.80
57857;DHT22;43683;48.650;9.290;2024-02-15T13:18:33;20.20;50.90
57857;DHT22;43683;48.650;9.290;2024-02-15T13:20:59;20.30;50.70
57857;DHT22;43683;48.650;9.290;2024-02-15T13:23:24;20.30;50.80
57857;DHT22;43683;48.650;9.290;2024-02-15T13:25:53;20.20;50.70
57857;DHT22;43683;48.650;9.290;2024-02-15T13:28:19;20.10;50.90
57857;DHT22;43683;48.650;9.290;2024-02-15T13:30:44;20.00;51.00
57857;DHT22;43683;48.650;9.290;2024-02-15T13:33:11;19.60;51.60
57857;DHT22;43683;48.650;9.290;2024-02-15T13:35:37;19.40;51.80
57857;DHT22;43683;48.650;9.290;2024-02-15T13:38:03;19.40;52.00
57857;DHT22;43683;48.650;9.290;2024-02-15T13:40:29;19.20;52.00
57857;DHT22;43683;48.650;9.290;2024-02-15T13:42:58;19.10;52.20
57857;DHT22;43683;48.650;9.290;2024-02-15T13:45:28;19.00;52.20
57857;DHT22;43683;48.650;9.290;2024-02-15T13:47:59;19.10;52.30
57857;DHT22;43683;48.650;9.290;2024-02-15T13:50:29;19.30;52.90
57857;DHT22;43683;48.650;9.290;2024-02-15T13:52:55;19.30;51.70
57857;DHT22;43683;48.650;9.290;2024-02-15T13:55:21;19.30;51.90
57857;DHT22;43683;48.650;9.290;2024-02-15T13:57:47;19.10;52.00
57857;DHT22;43683;48.650;9.290;2024-02-15T14:00:15;19.00;52.10
57857;DHT22;43683;48.650;9.290;2024-02-15T14:02:50;18.80;52.40
57857;DHT22;43683;48.650;9.290;2024-02-15T14:05:17;18.60;52.70
57857;DHT22;43683;48.650;9.290;2024-02-15T14:07:49;18.40;53.10
57857;DHT22;43683;48.650;9.290;2024-02-15T14:10:15;18.30;53.30
57857;DHT22;43683;48.650;9.290;2024-02-15T14:12:44;18.30;53.60
57857;DHT22;43683;48.650;9.290;2024-02-15T14:15:10;18.30;53.80
57857;DHT22;43683;48.650;9.290;2024-02-15T14:17:37;18.20;53.90
57857;DHT22;43683;48.650;9.290;2024-02-15T14:20:03;18.00;54.00
57857;DHT22;43683;48.650;9.290;2024-02-15T14:22:34;18.00;54.20
57857;DHT22;43683;48.650;9.290;2024-02-15T14:24:59;17.90;54.50
57857;DHT22;43683;48.650;9.290;2024-02-15T14:27:25;17.90;54.60
57857;DHT22;43683;48.650;9.290;2024-02-15T14:29:50;17.90;54.60
57857;DHT22;43683;48.650;9.290;2024-02-15T14:32:35;17.80;54.60
57857;DHT22;43683;48.650;9.290;2024-02-15T14:35:19;17.80;54.70
57857;DHT22;43683;48.650;9.290;2024-02-15T14:37:46;17.80;54.60
57857;DHT22;43683;48.650;9.290;2024-02-15T14:40:12;17.90;54.60
57857;DHT22;43683;48.650;9.290;2024-02-15T14:42:41;17.90;54.50
57857;DHT22;43683;48.650;9.290;2024-02-15T14:45:11;18.00;54.70
57857;DHT22;43683;48.650;9.290;2024-02-15T14:47:37;18.00;54.90
57857;DHT22;43683;48.650;9.290;2024-02-15T14:50:04;17.90;54.90
57857;DHT22;43683;48.650;9.290;2024-02-15T14:52:36;17.90;55.00
57857;DHT22;43683;48.650;9.290;2024-02-15T14:55:05;18.00;55.20
57857;DHT22;43683;48.650;9.290;2024-02-15T14:57:33;18.10;55.40
57857;DHT22;43683;48.650;9.290;2024-02-15T14:59:59;18.10;55.30
57857;DHT22;43683;48.650;9.290;2024-02-15T15:02:25;18.20;55.10
57857;DHT22;43683;48.650;9.290;2024-02-15T15:04:50;18.20;55.00
57857;DHT22;43683;48.650;9.290;2024-02-15T15:07:54;18.30;55.00
57857;DHT22;43683;48.650;9.290;2024-02-15T15:10:38;18.30;55.00
57857;DHT22;43683;48.650;9.290;2024-02-15T15:13:22;18.10;55.00
57857;DHT22;43683;48.650;9.290;2024-02-15T15:15:49;18.00;55.10
57857;DHT22;43683;48.650;9.290;2024-02-15T15:18:14;17.90;55.10
57857;DHT22;43683;48.650;9.290;2024-02-15T15:20:40;17.90;55.20
57857;DHT22;43683;48.650;9.290;2024-02-15T15:23:05;17.80;55.50
57857;DHT22;43683;48.650;9.290;2024-02-15T15:25:34;17.70;55.70
57857;DHT22;43683;48.650;9.290;2024-02-15T15:28:06;17.60;55.90
57857;DHT22;43683;48.650;9.290;2024-02-15T15:30:32;17.50;56.20
57857;DHT22;43683;48.650;9.290;2024-02-15T15:32:58;17.30;56.40
57857;DHT22;43683;48.650;9.290;2024-02-15T15:35:26;17.10;56.80
57857;DHT22;43683;48.650;9.290;2024-02-15T15:37:52;16.90;57.00
57857;DHT22;43683;48.650;9.290;2024-02-15T15:40:18;16.80;57.40
57857;DHT22;43683;48.650;9.290;2024-02-15T15:42:44;16.60;57.70
57857;DHT22;43683;48.650;9.290;2024-02-15T15:45:10;16.50;58.10
57857;DHT22;43683;48.650;9.290;2024-02-15T15:47:36;16.30;58.30
57857;DHT22;43683;48.650;9.290;2024-02-15T15:50:02;16.20;58.60
57857;DHT22;43683;48.650;9.290;2024-02-15T15:52:32;16.00;58.90
57857;DHT22;43683;48.650;9.290;2024-02-15T15:54:58;15.90;59.40
57857;DHT22;43683;48.650;9.290;2024-02-15T15:57:24;15.80;59.70